sensor_id;sensor_type;location;lat;lon;timestamp;P1;durP1;ratioP1;P2;durP2;ratioP2
74614;SDS011;63121;51.458;-0.110;2022-09-23T00:01:11;8.15;;;3.38;;
74614;SDS011;63121;51.458;-0.110;2022-09-23T00:03:39;9.60;;;3.70;;
74614;SDS011;63121;51.458;-0.110;2022-09-23T00:06:07;8.45;;;3.25;;
74614;SDS011;63121;51.458;-0.110;2022-09-23T00:08:34;11.18;;;3.70;;
74614;SDS011;63121;51.458;-0.110;2022-09-23T00:11:08;9.20;;;2.95;;
74614;SDS011;63121;51.458;-0.110;2022-09-23T00:13:35;8.80;;;3.92;;
74614;SDS011;63121;51.458;-0.110;2022-09-23T00:16:03;7.82;;;2.95;;
74614;SDS011;63121;51.458;-0.110;2022-09-23T00:18:30;10.02;;;3.42;;
74614;SDS011;63121;51.458;-0.110;2022-09-23T00:20:56;10.70;;;3.20;;
74614;SDS011;63121;51.458;-0.110;2022-09-23T00:23:21;9.90;;;3.53;;
74614;SDS011;63121;51.458;-0.110;2022-09-23T00:25:56;8.73;;;3.20;;
74614;SDS011;63121;51.458;-0.110;2022-09-23T00:28:23;11.85;;;3.97;;
74614;SDS011;63121;51.458;-0.110;2022-09-23T00:30:48;8.98;;;3.70;;
74614;SDS011;63121;51.458;-0.110;2022-09-23T00:33:14;10.25;;;3.95;;
74614;SDS011;63121;51.458;-0.110;2022-09-23T00:35:39;12.77;;;3.85;;
74614;SDS011;63121;51.458;-0.110;2022-09-23T00:38:05;9.53;;;3.50;;
74614;SDS011;63121;51.458;-0.110;2022-09-23T00:40:30;8.07;;;3.53;;
74614;SDS011;63121;51.458;-0.110;2022-09-23T00:42:56;9.90;;;4.03;;
74614;SDS011;63121;51.458;-0.110;2022-09-23T00:45:22;7.55;;;3.20;;
74614;SDS011;63121;51.458;-0.110;2022-09-23T00:47:59;10.95;;;3.78;;
74614;SDS011;63121;51.458;-0.110;2022-09-23T00:50:33;8.00;;;3.42;;
74614;SDS011;63121;51.458;-0.110;2022-09-23T00:53:07;9.43;;;3.60;;
74614;SDS011;63121;51.458;-0.110;2022-09-23T00:55:45;8.45;;;3.85;;
74614;SDS011;63121;51.458;-0.110;2022-09-23T00:58:14;13.25;;;4.22;;
74614;SDS011;63121;51.458;-0.110;2022-09-23T01:00:44;11.68;;;4.40;;
74614;SDS011;63121;51.458;-0.110;2022-09-23T01:03:11;9.25;;;4.13;;
74614;SDS011;63121;51.458;-0.110;2022-09-23T01:05:37;10.35;;;4.63;;
74614;SDS011;63121;51.458;-0.110;2022-09-23T01:08:04;12.15;;;4.50;;
74614;SDS011;63121;51.458;-0.110;2022-09-23T01:10:34;8.35;;;3.88;;
74614;SDS011;63121;51.458;-0.110;2022-09-23T01:13:18;13.05;;;4.07;;
74614;SDS011;63121;51.458;-0.110;2022-09-23T01:16:04;11.88;;;4.18;;
74614;SDS011;63121;51.458;-0.110;2022-09-23T01:21:17;7.78;;;3.60;;
74614;SDS011;63121;51.458;-0.110;2022-09-23T01:29:47;11.88;;;4.22;;
74614;SDS011;63121;51.458;-0.110;2022-09-23T01:43:13;10.02;;;4.07;;
74614;SDS011;63121;51.458;-0.110;2022-09-23T01:45:46;11.80;;;4.15;;
74614;SDS011;63121;51.458;-0.110;2022-09-23T01:51:12;10.60;;;3.70;;
74614;SDS011;63121;51.458;-0.110;2022-09-23T01:56:26;9.93;;;4.07;;
74614;SDS011;63121;51.458;-0.110;2022-09-23T02:01:34;11.40;;;4.63;;
74614;SDS011;63121;51.458;-0.110;2022-09-23T02:04:31;8.63;;;3.70;;
74614;SDS011;63121;51.458;-0.110;2022-09-23T02:07:08;9.73;;;4.15;;
74614;SDS011;63121;51.458;-0.110;2022-09-23T02:09:42;8.52;;;3.88;;
74614;SDS011;63121;51.458;-0.110;2022-09-23T02:12:14;10.73;;;3.88;;
74614;SDS011;63121;51.458;-0.110;2022-09-23T02:14:45;10.70;;;3.95;;
74614;SDS011;63121;51.458;-0.110;2022-09-23T02:17:25;10.27;;;3.92;;
74614;SDS011;63121;51.458;-0.110;2022-09-23T02:19:58;9.70;;;4.10;;
74614;SDS011;63121;51.458;-0.110;2022-09-23T02:22:28;10.35;;;3.97;;
74614;SDS011;63121;51.458;-0.110;2022-09-23T02:25:02;10.43;;;3.78;;
74614;SDS011;63121;51.458;-0.110;2022-09-23T02:27:32;8.63;;;3.80;;
74614;SDS011;63121;51.458;-0.110;2022-09-23T02:30:12;11.07;;;4.20;;
74614;SDS011;63121;51.458;-0.110;2022-09-23T02:38:30;9.50;;;4.18;;
74614;SDS011;63121;51.458;-0.110;2022-09-23T02:43:53;8.02;;;3.75;;
74614;SDS011;63121;51.458;-0.110;2022-09-23T02:46:26;11.55;;;4.07;;
74614;SDS011;63121;51.458;-0.110;2022-09-23T02:49:02;11.05;;;4.22;;
74614;SDS011;63121;51.458;-0.110;2022-09-23T02:51:35;9.45;;;4.07;;
74614;SDS011;63121;51.458;-0.110;2022-09-23T02:54:02;11.40;;;4.60;;
74614;SDS011;63121;51.458;-0.110;2022-09-23T02:56:31;14.85;;;4.50;;
74614;SDS011;63121;51.458;-0.110;2022-09-23T02:58:57;13.50;;;4.75;;
74614;SDS011;63121;51.458;-0.110;2022-09-23T03:09:09;11.82;;;4.47;;
74614;SDS011;63121;51.458;-0.110;2022-09-23T03:11:43;11.27;;;4.65;;
74614;SDS011;63121;51.458;-0.110;2022-09-23T03:14:24;9.45;;;4.03;;
74614;SDS011;63121;51.458;-0.110;2022-09-23T03:17:06;8.73;;;4.20;;
74614;SDS011;63121;51.458;-0.110;2022-09-23T03:22:12;10.77;;;4.72;;
74614;SDS011;63121;51.458;-0.110;2022-09-23T03:24:42;13.43;;;4.43;;
74614;SDS011;63121;51.458;-0.110;2022-09-23T03:27:13;10.63;;;4.47;;
74614;SDS011;63121;51.458;-0.110;2022-09-23T03:29:46;11.18;;;4.45;;
74614;SDS011;63121;51.458;-0.110;2022-09-23T03:32:15;10.23;;;4.57;;
74614;SDS011;63121;51.458;-0.110;2022-09-23T03:34:43;9.63;;;4.10;;
74614;SDS011;63121;51.458;-0.110;2022-09-23T03:37:13;10.48;;;4.80;;
74614;SDS011;63121;51.458;-0.110;2022-09-23T03:39:49;10.00;;;4.53;;
74614;SDS011;63121;51.458;-0.110;2022-09-23T03:42:20;10.52;;;4.40;;
74614;SDS011;63121;51.458;-0.110;2022-09-23T03:44:50;13.02;;;4.53;;
74614;SDS011;63121;51.458;-0.110;2022-09-23T03:47:18;9.85;;;4.20;;
74614;SDS011;63121;51.458;-0.110;2022-09-23T03:49:47;9.90;;;4.13;;
74614;SDS011;63121;51.458;-0.110;2022-09-23T03:52:15;11.80;;;4.63;;
74614;SDS011;63121;51.458;-0.110;2022-09-23T03:54:41;9.07;;;3.85;;
74614;SDS011;63121;51.458;-0.110;2022-09-23T03:57:07;9.07;;;4.40;;
74614;SDS011;63121;51.458;-0.110;2022-09-23T03:59:34;10.40;;;4.15;;
74614;SDS011;63121;51.458;-0.110;2022-09-23T04:02:00;12.68;;;4.72;;
74614;SDS011;63121;51.458;-0.110;2022-09-23T04:04:26;13.93;;;4.70;;
74614;SDS011;63121;51.458;-0.110;2022-09-23T04:06:55;10.73;;;3.92;;
74614;SDS011;63121;51.458;-0.110;2022-09-23T04:09:21;11.35;;;4.38;;
74614;SDS011;63121;51.458;-0.110;2022-09-23T04:11:50;9.20;;;4.20;;
74614;SDS011;63121;51.458;-0.110;2022-09-23T04:14:17;11.15;;;4.78;;
74614;SDS011;63121;51.458;-0.110;2022-09-23T04:16:43;11.40;;;4.35;;
74614;SDS011;63121;51.458;-0.110;2022-09-23T04:19:09;12.55;;;4.78;;
74614;SDS011;63121;51.458;-0.110;2022-09-23T04:21:35;11.30;;;4.22;;
74614;SDS011;63121;51.458;-0.110;2022-09-23T04:24:01;13.82;;;4.78;;
74614;SDS011;63121;51.458;-0.110;2022-09-23T04:26:27;11.68;;;5.03;;
74614;SDS011;63121;51.458;-0.110;2022-09-23T04:28:53;11.67;;;4.10;;
74614;SDS011;63121;51.458;-0.110;2022-09-23T04:31:18;12.30;;;5.00;;
74614;SDS011;63121;51.458;-0.110;2022-09-23T04:33:44;9.63;;;4.65;;
74614;SDS011;63121;51.458;-0.110;2022-09-23T04:36:09;9.80;;;4.17;;
74614;SDS011;63121;51.458;-0.110;2022-09-23T04:38:35;13.18;;;4.82;;
74614;SDS011;63121;51.458;-0.110;2022-09-23T04:41:00;11.60;;;4.43;;
74614;SDS011;63121;51.458;-0.110;2022-09-23T04:43:25;11.35;;;5.32;;
74614;SDS011;63121;51.458;-0.110;2022-09-23T04:46:00;11.13;;;5.05;;
74614;SDS011;63121;51.458;-0.110;2022-09-23T04:48:28;13.20;;;4.72;;
74614;SDS011;63121;51.458;-0.110;2022-09-23T04:50:53;10.13;;;4.60;;
74614;SDS011;63121;51.458;-0.110;2022-09-23T04:53:25;9.32;;;4.50;;
74614;SDS011;63121;51.458;-0.110;2022-09-23T04:55:50;11.07;;;4.77;;
74614;SDS011;63121;51.458;-0.110;2022-09-23T04:58:16;10.82;;;4.43;;
74614;SDS011;63121;51.458;-0.110;2022-09-23T05:00:41;8.93;;;4.30;;
74614;SDS011;63121;51.458;-0.110;2022-09-23T05:03:06;9.17;;;4.13;;
74614;SDS011;63121;51.458;-0.110;2022-09-23T05:05:32;8.97;;;4.27;;
74614;SDS011;63121;51.458;-0.110;2022-09-23T05:07:58;11.38;;;4.07;;
74614;SDS011;63121;51.458;-0.110;2022-09-23T05:10:23;9.43;;;4.13;;
74614;SDS011;63121;51.458;-0.110;2022-09-23T05:12:49;9.15;;;4.15;;
74614;SDS011;63121;51.458;-0.110;2022-09-23T05:15:14;10.48;;;4.13;;
74614;SDS011;63121;51.458;-0.110;2022-09-23T05:17:40;9.98;;;4.20;;
74614;SDS011;63121;51.458;-0.110;2022-09-23T05:20:07;9.80;;;4.15;;
74614;SDS011;63121;51.458;-0.110;2022-09-23T05:22:33;9.38;;;4.18;;
74614;SDS011;63121;51.458;-0.110;2022-09-23T05:24:59;11.10;;;4.35;;
74614;SDS011;63121;51.458;-0.110;2022-09-23T05:27:26;11.27;;;4.40;;
74614;SDS011;63121;51.458;-0.110;2022-09-23T05:29:51;9.50;;;4.30;;
74614;SDS011;63121;51.458;-0.110;2022-09-23T05:32:17;9.32;;;4.18;;
74614;SDS011;63121;51.458;-0.110;2022-09-23T05:34:42;13.27;;;4.60;;
74614;SDS011;63121;51.458;-0.110;2022-09-23T05:37:08;9.38;;;3.80;;
74614;SDS011;63121;51.458;-0.110;2022-09-23T05:39:33;8.75;;;3.70;;
74614;SDS011;63121;51.458;-0.110;2022-09-23T05:41:58;10.57;;;4.50;;
74614;SDS011;63121;51.458;-0.110;2022-09-23T05:44:24;9.50;;;4.25;;
74614;SDS011;63121;51.458;-0.110;2022-09-23T05:46:50;11.65;;;4.10;;
74614;SDS011;63121;51.458;-0.110;2022-09-23T05:49:15;9.50;;;4.22;;
74614;SDS011;63121;51.458;-0.110;2022-09-23T05:51:41;10.48;;;4.43;;
74614;SDS011;63121;51.458;-0.110;2022-09-23T05:54:06;10.05;;;4.35;;
74614;SDS011;63121;51.458;-0.110;2022-09-23T05:56:32;9.60;;;4.65;;
74614;SDS011;63121;51.458;-0.110;2022-09-23T05:58:59;8.88;;;4.07;;
74614;SDS011;63121;51.458;-0.110;2022-09-23T06:01:26;10.60;;;4.90;;
74614;SDS011;63121;51.458;-0.110;2022-09-23T06:03:56;9.52;;;4.68;;
74614;SDS011;63121;51.458;-0.110;2022-09-23T06:09:17;14.80;;;5.18;;
74614;SDS011;63121;51.458;-0.110;2022-09-23T06:11:42;10.00;;;5.00;;
74614;SDS011;63121;51.458;-0.110;2022-09-23T06:14:12;10.87;;;5.03;;
74614;SDS011;63121;51.458;-0.110;2022-09-23T06:16:38;11.77;;;5.57;;
74614;SDS011;63121;51.458;-0.110;2022-09-23T06:19:04;11.73;;;5.93;;
74614;SDS011;63121;51.458;-0.110;2022-09-23T06:21:29;12.93;;;5.50;;
74614;SDS011;63121;51.458;-0.110;2022-09-23T06:23:59;16.05;;;6.45;;
74614;SDS011;63121;51.458;-0.110;2022-09-23T06:26:24;11.23;;;5.75;;
74614;SDS011;63121;51.458;-0.110;2022-09-23T06:28:50;12.98;;;5.63;;
74614;SDS011;63121;51.458;-0.110;2022-09-23T06:31:15;13.05;;;5.70;;
74614;SDS011;63121;51.458;-0.110;2022-09-23T06:33:41;11.48;;;5.82;;
74614;SDS011;63121;51.458;-0.110;2022-09-23T06:36:08;10.32;;;5.28;;
74614;SDS011;63121;51.458;-0.110;2022-09-23T06:38:39;15.48;;;6.93;;
74614;SDS011;63121;51.458;-0.110;2022-09-23T06:41:08;12.85;;;5.57;;
74614;SDS011;63121;51.458;-0.110;2022-09-23T06:43:33;13.68;;;5.97;;
74614;SDS011;63121;51.458;-0.110;2022-09-23T06:45:59;10.98;;;5.68;;
74614;SDS011;63121;51.458;-0.110;2022-09-23T06:50:51;11.85;;;5.22;;
74614;SDS011;63121;51.458;-0.110;2022-09-23T06:53:21;11.10;;;5.40;;
74614;SDS011;63121;51.458;-0.110;2022-09-23T06:55:47;12.75;;;6.25;;
74614;SDS011;63121;51.458;-0.110;2022-09-23T06:58:14;11.13;;;5.63;;
74614;SDS011;63121;51.458;-0.110;2022-09-23T07:00:39;10.60;;;5.15;;
74614;SDS011;63121;51.458;-0.110;2022-09-23T07:03:07;12.15;;;5.28;;
74614;SDS011;63121;51.458;-0.110;2022-09-23T07:05:34;10.50;;;4.65;;
74614;SDS011;63121;51.458;-0.110;2022-09-23T07:08:00;10.13;;;4.40;;
74614;SDS011;63121;51.458;-0.110;2022-09-23T07:10:25;10.25;;;4.97;;
74614;SDS011;63121;51.458;-0.110;2022-09-23T07:12:53;9.43;;;4.60;;
74614;SDS011;63121;51.458;-0.110;2022-09-23T07:15:19;8.95;;;4.43;;
74614;SDS011;63121;51.458;-0.110;2022-09-23T07:17:44;9.93;;;4.13;;
74614;SDS011;63121;51.458;-0.110;2022-09-23T07:20:09;10.15;;;4.32;;
74614;SDS011;63121;51.458;-0.110;2022-09-23T07:22:35;9.30;;;3.70;;
74614;SDS011;63121;51.458;-0.110;2022-09-23T07:25:02;8.93;;;3.97;;
74614;SDS011;63121;51.458;-0.110;2022-09-23T07:27:28;11.40;;;3.75;;
74614;SDS011;63121;51.458;-0.110;2022-09-23T07:29:53;9.20;;;3.80;;
74614;SDS011;63121;51.458;-0.110;2022-09-23T07:32:19;9.07;;;3.70;;
74614;SDS011;63121;51.458;-0.110;2022-09-23T07:34:46;9.48;;;3.80;;
74614;SDS011;63121;51.458;-0.110;2022-09-23T07:37:13;8.27;;;3.58;;
74614;SDS011;63121;51.458;-0.110;2022-09-23T07:39:39;8.95;;;3.63;;
74614;SDS011;63121;51.458;-0.110;2022-09-23T07:42:06;8.63;;;3.85;;
74614;SDS011;63121;51.458;-0.110;2022-09-23T07:44:31;9.25;;;4.10;;
74614;SDS011;63121;51.458;-0.110;2022-09-23T07:46:57;8.93;;;3.95;;
74614;SDS011;63121;51.458;-0.110;2022-09-23T07:49:24;9.63;;;4.32;;
74614;SDS011;63121;51.458;-0.110;2022-09-23T07:51:50;10.15;;;4.68;;
74614;SDS011;63121;51.458;-0.110;2022-09-23T07:54:16;10.38;;;4.57;;
74614;SDS011;63121;51.458;-0.110;2022-09-23T07:56:43;10.30;;;4.75;;
74614;SDS011;63121;51.458;-0.110;2022-09-23T07:59:11;10.45;;;4.70;;
74614;SDS011;63121;51.458;-0.110;2022-09-23T08:01:42;9.95;;;5.00;;
74614;SDS011;63121;51.458;-0.110;2022-09-23T08:04:18;9.63;;;4.72;;
74614;SDS011;63121;51.458;-0.110;2022-09-23T08:06:55;10.48;;;5.05;;
74614;SDS011;63121;51.458;-0.110;2022-09-23T08:09:24;11.38;;;5.40;;
74614;SDS011;63121;51.458;-0.110;2022-09-23T08:11:52;12.27;;;5.60;;
74614;SDS011;63121;51.458;-0.110;2022-09-23T08:14:18;11.40;;;5.90;;
74614;SDS011;63121;51.458;-0.110;2022-09-23T08:16:44;10.55;;;5.38;;
74614;SDS011;63121;51.458;-0.110;2022-09-23T08:19:11;11.07;;;5.80;;
74614;SDS011;63121;51.458;-0.110;2022-09-23T08:21:37;11.68;;;5.60;;
74614;SDS011;63121;51.458;-0.110;2022-09-23T08:24:10;10.75;;;5.35;;
74614;SDS011;63121;51.458;-0.110;2022-09-23T08:26:38;13.43;;;6.03;;
74614;SDS011;63121;51.458;-0.110;2022-09-23T08:29:04;11.37;;;5.60;;
74614;SDS011;63121;51.458;-0.110;2022-09-23T08:31:29;11.13;;;5.50;;
74614;SDS011;63121;51.458;-0.110;2022-09-23T08:33:56;10.13;;;4.88;;
74614;SDS011;63121;51.458;-0.110;2022-09-23T08:36:22;11.27;;;5.10;;
74614;SDS011;63121;51.458;-0.110;2022-09-23T08:38:49;11.15;;;5.63;;
74614;SDS011;63121;51.458;-0.110;2022-09-23T08:43:56;10.23;;;5.10;;
74614;SDS011;63121;51.458;-0.110;2022-09-23T08:46:28;10.95;;;5.50;;
74614;SDS011;63121;51.458;-0.110;2022-09-23T08:48:59;10.98;;;5.68;;
74614;SDS011;63121;51.458;-0.110;2022-09-23T08:51:38;14.00;;;6.45;;
74614;SDS011;63121;51.458;-0.110;2022-09-23T08:54:10;14.25;;;6.75;;
74614;SDS011;63121;51.458;-0.110;2022-09-23T08:56:36;16.02;;;7.35;;
74614;SDS011;63121;51.458;-0.110;2022-09-23T08:59:04;17.88;;;6.93;;
74614;SDS011;63121;51.458;-0.110;2022-09-23T09:09:31;20.60;;;8.68;;
74614;SDS011;63121;51.458;-0.110;2022-09-23T09:14:56;20.63;;;8.15;;
74614;SDS011;63121;51.458;-0.110;2022-09-23T09:17:40;17.25;;;8.10;;
74614;SDS011;63121;51.458;-0.110;2022-09-23T09:20:36;15.80;;;7.82;;
74614;SDS011;63121;51.458;-0.110;2022-09-23T09:26:25;15.60;;;7.72;;
74614;SDS011;63121;51.458;-0.110;2022-09-23T09:28:54;18.13;;;8.35;;
74614;SDS011;63121;51.458;-0.110;2022-09-23T09:31:43;18.65;;;8.98;;
74614;SDS011;63121;51.458;-0.110;2022-09-23T09:34:14;18.10;;;8.73;;
74614;SDS011;63121;51.458;-0.110;2022-09-23T09:36:58;17.95;;;8.20;;
74614;SDS011;63121;51.458;-0.110;2022-09-23T09:39:36;16.30;;;8.02;;
74614;SDS011;63121;51.458;-0.110;2022-09-23T09:42:02;30.95;;;14.00;;
74614;SDS011;63121;51.458;-0.110;2022-09-23T09:52:45;20.25;;;9.38;;
74614;SDS011;63121;51.458;-0.110;2022-09-23T09:55:24;27.40;;;14.50;;
74614;SDS011;63121;51.458;-0.110;2022-09-23T10:02:55;19.30;;;9.37;;
74614;SDS011;63121;51.458;-0.110;2022-09-23T10:05:32;20.35;;;9.77;;
74614;SDS011;63121;51.458;-0.110;2022-09-23T10:13:28;15.88;;;8.13;;
74614;SDS011;63121;51.458;-0.110;2022-09-23T10:15:54;16.30;;;8.13;;
74614;SDS011;63121;51.458;-0.110;2022-09-23T10:21:36;13.82;;;7.10;;
74614;SDS011;63121;51.458;-0.110;2022-09-23T10:23:59;15.48;;;7.25;;
74614;SDS011;63121;51.458;-0.110;2022-09-23T10:28:53;14.23;;;7.37;;
74614;SDS011;63121;51.458;-0.110;2022-09-23T10:33:56;11.88;;;5.63;;
74614;SDS011;63121;51.458;-0.110;2022-09-23T10:36:44;12.23;;;5.53;;
74614;SDS011;63121;51.458;-0.110;2022-09-23T10:39:19;11.00;;;5.25;;
74614;SDS011;63121;51.458;-0.110;2022-09-23T10:42:07;12.60;;;5.53;;
74614;SDS011;63121;51.458;-0.110;2022-09-23T10:56:51;11.02;;;4.63;;
74614;SDS011;63121;51.458;-0.110;2022-09-23T11:25:12;8.93;;;3.83;;
74614;SDS011;63121;51.458;-0.110;2022-09-23T11:30:51;8.10;;;2.90;;
74614;SDS011;63121;51.458;-0.110;2022-09-23T11:36:36;8.32;;;2.88;;
74614;SDS011;63121;51.458;-0.110;2022-09-23T11:39:11;8.23;;;3.40;;
74614;SDS011;63121;51.458;-0.110;2022-09-23T11:41:41;8.10;;;3.10;;
74614;SDS011;63121;51.458;-0.110;2022-09-23T11:54:48;10.35;;;3.10;;
74614;SDS011;63121;51.458;-0.110;2022-09-23T11:57:26;8.05;;;2.60;;
74614;SDS011;63121;51.458;-0.110;2022-09-23T12:00:01;8.50;;;2.92;;
74614;SDS011;63121;51.458;-0.110;2022-09-23T12:02:33;8.05;;;2.83;;
74614;SDS011;63121;51.458;-0.110;2022-09-23T12:08:26;10.88;;;3.40;;
74614;SDS011;63121;51.458;-0.110;2022-09-23T12:13:25;9.07;;;2.95;;
74614;SDS011;63121;51.458;-0.110;2022-09-23T12:27:36;7.63;;;2.90;;
74614;SDS011;63121;51.458;-0.110;2022-09-23T12:30:07;9.27;;;3.25;;
74614;SDS011;63121;51.458;-0.110;2022-09-23T12:32:39;7.47;;;2.72;;
74614;SDS011;63121;51.458;-0.110;2022-09-23T12:35:16;8.40;;;3.00;;
74614;SDS011;63121;51.458;-0.110;2022-09-23T12:37:46;8.23;;;3.10;;
74614;SDS011;63121;51.458;-0.110;2022-09-23T12:40:16;8.93;;;3.00;;
74614;SDS011;63121;51.458;-0.110;2022-09-23T12:42:52;7.82;;;2.80;;
74614;SDS011;63121;51.458;-0.110;2022-09-23T12:45:31;8.77;;;2.67;;
74614;SDS011;63121;51.458;-0.110;2022-09-23T12:47:59;7.07;;;2.60;;
74614;SDS011;63121;51.458;-0.110;2022-09-23T12:56:00;7.20;;;2.53;;
74614;SDS011;63121;51.458;-0.110;2022-09-23T13:01:18;7.30;;;2.30;;
74614;SDS011;63121;51.458;-0.110;2022-09-23T13:03:51;6.10;;;2.17;;
74614;SDS011;63121;51.458;-0.110;2022-09-23T13:06:45;7.63;;;2.50;;
74614;SDS011;63121;51.458;-0.110;2022-09-23T13:09:30;5.38;;;1.90;;
74614;SDS011;63121;51.458;-0.110;2022-09-23T13:12:03;6.78;;;2.28;;
74614;SDS011;63121;51.458;-0.110;2022-09-23T13:14:31;5.88;;;2.15;;
74614;SDS011;63121;51.458;-0.110;2022-09-23T13:22:02;8.55;;;2.70;;
74614;SDS011;63121;51.458;-0.110;2022-09-23T13:24:34;6.57;;;2.35;;
74614;SDS011;63121;51.458;-0.110;2022-09-23T13:27:16;7.03;;;2.20;;
74614;SDS011;63121;51.458;-0.110;2022-09-23T13:30:02;6.25;;;1.95;;
74614;SDS011;63121;51.458;-0.110;2022-09-23T13:35:36;6.18;;;2.10;;
74614;SDS011;63121;51.458;-0.110;2022-09-23T13:38:11;6.47;;;2.08;;
74614;SDS011;63121;51.458;-0.110;2022-09-23T13:40:49;6.30;;;1.90;;
74614;SDS011;63121;51.458;-0.110;2022-09-23T13:43:21;5.10;;;1.92;;
74614;SDS011;63121;51.458;-0.110;2022-09-23T13:45:49;6.28;;;2.08;;
74614;SDS011;63121;51.458;-0.110;2022-09-23T13:48:15;5.85;;;2.10;;
74614;SDS011;63121;51.458;-0.110;2022-09-23T13:50:43;7.30;;;2.40;;
74614;SDS011;63121;51.458;-0.110;2022-09-23T13:53:15;7.32;;;3.05;;
74614;SDS011;63121;51.458;-0.110;2022-09-23T13:55:46;7.45;;;2.63;;
74614;SDS011;63121;51.458;-0.110;2022-09-23T14:00:43;7.82;;;2.70;;
74614;SDS011;63121;51.458;-0.110;2022-09-23T14:03:22;7.55;;;2.90;;
74614;SDS011;63121;51.458;-0.110;2022-09-23T14:05:50;8.07;;;3.20;;
74614;SDS011;63121;51.458;-0.110;2022-09-23T14:08:17;7.90;;;3.35;;
74614;SDS011;63121;51.458;-0.110;2022-09-23T14:10:43;8.13;;;3.35;;
74614;SDS011;63121;51.458;-0.110;2022-09-23T14:13:14;7.97;;;3.28;;
74614;SDS011;63121;51.458;-0.110;2022-09-23T14:15:44;7.85;;;3.40;;
74614;SDS011;63121;51.458;-0.110;2022-09-23T14:18:14;7.55;;;3.30;;
74614;SDS011;63121;51.458;-0.110;2022-09-23T14:20:46;9.07;;;3.67;;
74614;SDS011;63121;51.458;-0.110;2022-09-23T14:23:14;9.45;;;3.42;;
74614;SDS011;63121;51.458;-0.110;2022-09-23T14:25:44;8.23;;;3.30;;
74614;SDS011;63121;51.458;-0.110;2022-09-23T14:28:15;9.27;;;3.28;;
74614;SDS011;63121;51.458;-0.110;2022-09-23T14:30:42;8.55;;;3.25;;
74614;SDS011;63121;51.458;-0.110;2022-09-23T14:36:03;8.68;;;3.50;;
74614;SDS011;63121;51.458;-0.110;2022-09-23T14:38:33;8.38;;;3.40;;
74614;SDS011;63121;51.458;-0.110;2022-09-23T14:41:23;9.15;;;3.55;;
74614;SDS011;63121;51.458;-0.110;2022-09-23T14:44:00;8.02;;;3.00;;
74614;SDS011;63121;51.458;-0.110;2022-09-23T14:46:27;7.70;;;3.35;;
74614;SDS011;63121;51.458;-0.110;2022-09-23T14:48:58;8.07;;;3.33;;
74614;SDS011;63121;51.458;-0.110;2022-09-23T14:54:30;8.60;;;3.67;;
74614;SDS011;63121;51.458;-0.110;2022-09-23T14:57:24;9.32;;;4.30;;
74614;SDS011;63121;51.458;-0.110;2022-09-23T14:59:57;8.55;;;4.13;;
74614;SDS011;63121;51.458;-0.110;2022-09-23T15:02:28;9.85;;;4.15;;
74614;SDS011;63121;51.458;-0.110;2022-09-23T15:07:34;9.40;;;3.97;;
74614;SDS011;63121;51.458;-0.110;2022-09-23T15:10:01;9.00;;;4.03;;
74614;SDS011;63121;51.458;-0.110;2022-09-23T15:12:28;9.57;;;3.83;;
74614;SDS011;63121;51.458;-0.110;2022-09-23T15:14:54;9.23;;;3.47;;
74614;SDS011;63121;51.458;-0.110;2022-09-23T15:20:06;9.07;;;3.85;;
74614;SDS011;63121;51.458;-0.110;2022-09-23T15:22:45;8.52;;;3.90;;
74614;SDS011;63121;51.458;-0.110;2022-09-23T15:25:17;9.48;;;4.18;;
74614;SDS011;63121;51.458;-0.110;2022-09-23T15:30:30;7.95;;;3.30;;
74614;SDS011;63121;51.458;-0.110;2022-09-23T15:32:58;9.32;;;4.13;;
74614;SDS011;63121;51.458;-0.110;2022-09-23T15:35:24;7.60;;;3.30;;
74614;SDS011;63121;51.458;-0.110;2022-09-23T15:37:50;7.60;;;3.40;;
74614;SDS011;63121;51.458;-0.110;2022-09-23T15:42:57;7.82;;;3.17;;
74614;SDS011;63121;51.458;-0.110;2022-09-23T15:45:25;7.25;;;3.33;;
74614;SDS011;63121;51.458;-0.110;2022-09-23T15:47:53;8.15;;;3.35;;
74614;SDS011;63121;51.458;-0.110;2022-09-23T15:50:22;8.10;;;3.38;;
74614;SDS011;63121;51.458;-0.110;2022-09-23T15:52:47;7.53;;;3.33;;
74614;SDS011;63121;51.458;-0.110;2022-09-23T15:55:17;8.27;;;3.67;;
74614;SDS011;63121;51.458;-0.110;2022-09-23T15:57:45;9.20;;;3.60;;
74614;SDS011;63121;51.458;-0.110;2022-09-23T16:00:11;7.88;;;3.70;;
74614;SDS011;63121;51.458;-0.110;2022-09-23T16:02:37;7.97;;;3.30;;
74614;SDS011;63121;51.458;-0.110;2022-09-23T16:07:30;7.47;;;3.13;;
74614;SDS011;63121;51.458;-0.110;2022-09-23T16:09:55;7.32;;;3.30;;
74614;SDS011;63121;51.458;-0.110;2022-09-23T16:12:22;8.40;;;3.60;;
74614;SDS011;63121;51.458;-0.110;2022-09-23T16:14:48;8.77;;;3.72;;
74614;SDS011;63121;51.458;-0.110;2022-09-23T16:17:13;9.25;;;3.45;;
74614;SDS011;63121;51.458;-0.110;2022-09-23T16:19:39;8.27;;;3.88;;
74614;SDS011;63121;51.458;-0.110;2022-09-23T16:22:04;9.05;;;4.15;;
74614;SDS011;63121;51.458;-0.110;2022-09-23T16:24:30;10.15;;;4.63;;
74614;SDS011;63121;51.458;-0.110;2022-09-23T16:26:55;11.23;;;5.37;;
74614;SDS011;63121;51.458;-0.110;2022-09-23T16:29:24;10.25;;;4.97;;
74614;SDS011;63121;51.458;-0.110;2022-09-23T16:34:15;10.33;;;4.93;;
74614;SDS011;63121;51.458;-0.110;2022-09-23T16:36:44;11.30;;;4.65;;
74614;SDS011;63121;51.458;-0.110;2022-09-23T16:39:11;11.60;;;5.47;;
74614;SDS011;63121;51.458;-0.110;2022-09-23T16:41:37;10.80;;;4.90;;
74614;SDS011;63121;51.458;-0.110;2022-09-23T16:44:04;9.60;;;4.40;;
74614;SDS011;63121;51.458;-0.110;2022-09-23T16:46:31;9.77;;;4.28;;
74614;SDS011;63121;51.458;-0.110;2022-09-23T16:48:57;9.05;;;3.90;;
74614;SDS011;63121;51.458;-0.110;2022-09-23T16:51:25;8.55;;;3.88;;
74614;SDS011;63121;51.458;-0.110;2022-09-23T16:53:53;8.43;;;3.60;;
74614;SDS011;63121;51.458;-0.110;2022-09-23T16:56:21;9.57;;;3.72;;
74614;SDS011;63121;51.458;-0.110;2022-09-23T16:58:48;10.25;;;3.60;;
74614;SDS011;63121;51.458;-0.110;2022-09-23T17:04:04;8.95;;;3.05;;
74614;SDS011;63121;51.458;-0.110;2022-09-23T17:06:30;9.98;;;3.97;;
74614;SDS011;63121;51.458;-0.110;2022-09-23T17:08:56;8.63;;;3.30;;
74614;SDS011;63121;51.458;-0.110;2022-09-23T17:11:21;9.82;;;3.30;;
74614;SDS011;63121;51.458;-0.110;2022-09-23T17:13:47;10.07;;;3.70;;
74614;SDS011;63121;51.458;-0.110;2022-09-23T17:18:49;7.50;;;2.88;;
74614;SDS011;63121;51.458;-0.110;2022-09-23T17:21:14;6.43;;;2.20;;
74614;SDS011;63121;51.458;-0.110;2022-09-23T17:23:40;7.30;;;2.53;;
74614;SDS011;63121;51.458;-0.110;2022-09-23T17:26:05;5.17;;;1.80;;
74614;SDS011;63121;51.458;-0.110;2022-09-23T17:28:33;6.53;;;2.22;;
74614;SDS011;63121;51.458;-0.110;2022-09-23T17:31:01;6.32;;;1.90;;
74614;SDS011;63121;51.458;-0.110;2022-09-23T17:33:28;5.65;;;2.10;;
74614;SDS011;63121;51.458;-0.110;2022-09-23T17:35:55;7.40;;;2.58;;
74614;SDS011;63121;51.458;-0.110;2022-09-23T17:38:22;6.75;;;2.13;;
74614;SDS011;63121;51.458;-0.110;2022-09-23T17:40:51;6.55;;;2.20;;
74614;SDS011;63121;51.458;-0.110;2022-09-23T17:43:19;6.43;;;2.10;;
74614;SDS011;63121;51.458;-0.110;2022-09-23T17:45:48;6.57;;;2.30;;
74614;SDS011;63121;51.458;-0.110;2022-09-23T17:48:14;9.10;;;2.42;;
74614;SDS011;63121;51.458;-0.110;2022-09-23T17:50:44;9.45;;;2.05;;
74614;SDS011;63121;51.458;-0.110;2022-09-23T17:53:17;8.23;;;2.58;;
74614;SDS011;63121;51.458;-0.110;2022-09-23T17:55:43;6.70;;;1.93;;
74614;SDS011;63121;51.458;-0.110;2022-09-23T17:58:18;7.15;;;2.00;;
74614;SDS011;63121;51.458;-0.110;2022-09-23T18:00:44;10.73;;;1.95;;
74614;SDS011;63121;51.458;-0.110;2022-09-23T18:03:10;7.15;;;1.75;;
74614;SDS011;63121;51.458;-0.110;2022-09-23T18:05:35;6.23;;;1.70;;
74614;SDS011;63121;51.458;-0.110;2022-09-23T18:08:00;5.57;;;1.52;;
74614;SDS011;63121;51.458;-0.110;2022-09-23T18:10:29;7.73;;;1.50;;
74614;SDS011;63121;51.458;-0.110;2022-09-23T18:12:54;7.28;;;1.52;;
74614;SDS011;63121;51.458;-0.110;2022-09-23T18:15:20;11.97;;;2.30;;